Time,TemperatureF,DewpointF,PressureIn,WindDirection,WindDirectionDegrees,WindSpeedMPH,WindSpeedGustMPH,Humidity,HourlyPrecipIn,Conditions,Clouds,dailyrainin,SoftwareType,DateUTC
2013-01-14 00:02:00,20.0,10.0,-100.00,ENE,65,2.0,6.0,64,-99.99,,,-99.99,,2013-01-14 08:02:00,
2013-01-14 00:12:00,20.0,11.0,-100.00,ENE,72,2.0,5.0,66,-99.99,,,-99.99,,2013-01-14 08:12:00,
2013-01-14 00:22:00,20.0,11.0,-100.00,ENE,72,2.0,7.0,67,-99.99,,,-99.99,,2013-01-14 08:22:00,
2013-01-14 00:32:00,20.0,10.0,-100.00,ENE,69,2.0,7.0,64,-99.99,,,-99.99,,2013-01-14 08:32:00,
2013-01-14 00:42:00,19.0,9.0,-100.00,ENE,62,3.0,7.0,63,-99.99,,,-99.99,,2013-01-14 08:42:00,
2013-01-14 00:52:00,19.0,8.0,-100.00,ENE,74,3.0,9.0,61,-99.99,,,-99.99,,2013-01-14 08:52:00,
2013-01-14 01:02:00,19.0,9.0,-100.00,ENE,65,3.0,7.0,63,-99.99,,,-99.99,,2013-01-14 09:02:00,
2013-01-14 01:11:00,18.0,7.0,-100.00,ENE,65,2.0,6.0,61,-99.99,,,-99.99,,2013-01-14 09:11:00,
2013-01-14 01:22:00,18.0,6.0,-100.00,ENE,71,2.0,4.0,58,-99.99,,,-99.99,,2013-01-14 09:22:00,
2013-01-14 01:33:00,17.0,3.0,-100.00,NE,51,2.0,4.0,54,-99.99,,,-99.99,,2013-01-14 09:33:00,
2013-01-14 01:42:00,17.0,3.0,-100.00,NE,51,2.0,4.0,54,-99.99,,,-99.99,,2013-01-14 09:42:00,
2013-01-14 01:52:00,17.0,3.0,-100.00,NE,51,2.0,4.0,54,-99.99,,,-99.99,,2013-01-14 09:52:00,
2013-01-14 02:02:00,17.0,2.0,-100.00,NE,54,2.0,5.0,51,-99.99,,,-99.99,,2013-01-14 10:02:00,
2013-01-14 02:11:00,17.0,1.0,-100.00,ENE,66,2.0,5.0,48,-99.99,,,-99.99,,2013-01-14 10:11:00,
2013-01-14 02:22:00,17.0,0.0,-100.00,NE,55,2.0,6.0,47,-99.99,,,-99.99,,2013-01-14 10:22:00,
2013-01-14 02:32:00,17.0,0.0,-100.00,NE,53,3.0,6.0,47,-99.99,,,-99.99,,2013-01-14 10:32:00,
2013-01-14 02:42:00,18.0,1.0,-100.00,ENE,57,3.0,6.0,47,-99.99,,,-99.99,,2013-01-14 10:42:00,
2013-01-14 02:52:00,18.0,1.0,-100.00,ENE,62,3.0,5.0,46,-99.99,,,-99.99,,2013-01-14 10:52:00,
2013-01-14 03:02:00,18.0,1.0,-100.00,NE,53,3.0,5.0,46,-99.99,,,-99.99,,2013-01-14 11:02:00,
2013-01-14 03:11:00,17.0,0.0,-100.00,ENE,57,2.0,4.0,47,-99.99,,,-99.99,,2013-01-14 11:11:00,
2013-01-14 03:22:00,17.0,1.0,-100.00,ENE,64,2.0,4.0,48,-99.99,,,-99.99,,2013-01-14 11:22:00,
2013-01-14 03:32:00,17.0,2.0,-100.00,East,90,1.0,3.0,51,-99.99,,,-99.99,,2013-01-14 11:32:00,
2013-01-14 03:42:00,17.0,2.0,-100.00,ESE,102,1.0,4.0,52,-99.99,,,-99.99,,2013-01-14 11:42:00,
2013-01-14 03:53:00,16.0,2.0,-100.00,ENE,70,1.0,2.0,53,-99.99,,,-99.99,,2013-01-14 11:53:00,
2013-01-14 04:02:00,16.0,2.0,-100.00,ENE,70,1.0,2.0,53,-99.99,,,-99.99,,2013-01-14 12:02:00,
2013-01-14 04:12:00,16.0,3.0,-100.00,SSE,159,2.0,3.0,55,-99.99,,,-99.99,,2013-01-14 12:12:00,
2013-01-14 04:22:00,15.0,3.0,-100.00,East,100,1.0,2.0,57,-99.99,,,-99.99,,2013-01-14 12:22:00,
2013-01-14 04:33:00,15.0,3.0,-100.00,SE,130,1.0,3.0,58,-99.99,,,-99.99,,2013-01-14 12:33:00,
2013-01-14 04:42:00,14.0,3.0,-100.00,ESE,111,1.0,2.0,61,-99.99,,,-99.99,,2013-01-14 12:42:00,
2013-01-14 04:52:00,15.0,2.0,-100.00,ESE,116,1.0,5.0,55,-99.99,,,-99.99,,2013-01-14 12:52:00,
2013-01-14 05:03:00,15.0,4.0,-100.00,ENE,63,1.0,2.0,60,-99.99,,,-99.99,,2013-01-14 13:03:00,
2013-01-14 05:12:00,13.0,3.0,-100.00,SE,129,1.0,2.0,64,-99.99,,,-99.99,,2013-01-14 13:12:00,
2013-01-14 05:22:00,14.0,2.0,-100.00,SE,136,1.0,4.0,58,-99.99,,,-99.99,,2013-01-14 13:22:00,
2013-01-14 05:33:00,13.0,2.0,-100.00,ESE,114,1.0,2.0,61,-99.99,,,-99.99,,2013-01-14 13:33:00,
2013-01-14 05:43:00,13.0,2.0,-100.00,ESE,114,1.0,2.0,61,-99.99,,,-99.99,,2013-01-14 13:43:00,
2013-01-14 05:52:00,13.0,1.0,-100.00,SSE,155,1.0,1.0,58,-99.99,,,-99.99,,2013-01-14 13:52:00,
2013-01-14 06:02:00,13.0,1.0,-100.00,SE,145,1.0,1.0,59,-99.99,,,-99.99,,2013-01-14 14:02:00,
2013-01-14 06:12:00,12.0,2.0,-100.00,East,86,1.0,1.0,62,-99.99,,,-99.99,,2013-01-14 14:12:00,
2013-01-14 06:22:00,12.0,2.0,-100.00,ENE,78,1.0,2.0,63,-99.99,,,-99.99,,2013-01-14 14:22:00,
2013-01-14 06:32:00,12.0,2.0,-100.00,East,79,1.0,1.0,63,-99.99,,,-99.99,,2013-01-14 14:32:00,
2013-01-14 06:42:00,12.0,2.0,-100.00,East,79,1.0,1.0,63,-99.99,,,-99.99,,2013-01-14 14:42:00,
2013-01-14 06:52:00,11.0,2.0,-100.00,ENE,72,1.0,1.0,67,-99.99,,,-99.99,,2013-01-14 14:52:00,
2013-01-14 07:02:00,11.0,2.0,-100.00,ENE,72,1.0,1.0,67,-99.99,,,-99.99,,2013-01-14 15:02:00,
2013-01-14 07:12:00,11.0,4.0,-100.00,ESE,105,1.0,1.0,73,-99.99,,,-99.99,,2013-01-14 15:12:00,
2013-01-14 07:23:00,11.0,4.0,-100.00,ESE,102,0.0,1.0,73,-99.99,,,-99.99,,2013-01-14 15:23:00,
2013-01-14 07:33:00,11.0,4.0,-100.00,ESE,104,1.0,1.0,73,-99.99,,,-99.99,,2013-01-14 15:33:00,
2013-01-14 07:42:00,12.0,3.0,-100.00,East,84,0.0,1.0,67,-99.99,,,-99.99,,2013-01-14 15:42:00,
2013-01-14 07:53:00,12.0,4.0,-100.00,East,85,0.0,1.0,70,-99.99,,,-99.99,,2013-01-14 15:53:00,
2013-01-14 08:02:00,12.0,5.0,-100.00,East,83,0.0,1.0,72,-99.99,,,-99.99,,2013-01-14 16:02:00,
2013-01-14 08:12:00,15.0,6.0,-100.00,NNE,30,1.0,1.0,68,-99.99,,,-99.99,,2013-01-14 16:12:00,
2013-01-14 08:23:00,17.0,5.0,-100.00,NE,40,1.0,3.0,59,-99.99,,,-99.99,,2013-01-14 16:23:00,
2013-01-14 08:33:00,20.0,4.0,-100.00,NE,37,2.0,4.0,50,-99.99,,,-99.99,,2013-01-14 16:33:00,
2013-01-14 08:42:00,21.0,4.0,-100.00,NE,39,2.0,4.0,47,-99.99,,,-99.99,,2013-01-14 16:42:00,
2013-01-14 08:52:00,22.0,4.0,-100.00,NE,39,3.0,6.0,45,-99.99,,,-99.99,,2013-01-14 16:52:00,
2013-01-14 09:02:00,22.0,4.0,-100.00,NE,39,3.0,6.0,45,-99.99,,,-99.99,,2013-01-14 17:02:00,
2013-01-14 09:12:00,23.0,3.0,-100.00,NE,52,2.0,5.0,42,-99.99,,,-99.99,,2013-01-14 17:12:00,
2013-01-14 09:22:00,23.0,3.0,-100.00,ENE,61,2.0,5.0,42,-99.99,,,-99.99,,2013-01-14 17:22:00,
2013-01-14 09:33:00,23.0,3.0,-100.00,NE,49,2.0,5.0,42,-99.99,,,-99.99,,2013-01-14 17:33:00,
2013-01-14 09:42:00,24.0,3.0,-100.00,ENE,57,3.0,6.0,40,-99.99,,,-99.99,,2013-01-14 17:42:00,
2013-01-14 09:53:00,23.0,3.0,-100.00,ENE,75,2.0,6.0,41,-99.99,,,-99.99,,2013-01-14 17:53:00,
2013-01-14 10:02:00,24.0,3.0,-100.00,ENE,68,2.0,5.0,39,-99.99,,,-99.99,,2013-01-14 18:02:00,
2013-01-14 10:12:00,24.0,2.0,-100.00,ENE,72,3.0,7.0,37,-99.99,,,-99.99,,2013-01-14 18:12:00,
2013-01-14 10:22:00,24.0,-2.0,-100.00,ENE,69,2.0,6.0,31,-99.99,,,-99.99,,2013-01-14 18:22:00,
2013-01-14 10:33:00,24.0,-5.0,-100.00,NE,56,3.0,6.0,27,-99.99,,,-99.99,,2013-01-14 18:33:00,
2013-01-14 10:42:00,25.0,-8.0,-100.00,ENE,60,2.0,5.0,23,-99.99,,,-99.99,,2013-01-14 18:42:00,
2013-01-14 10:52:00,25.0,-6.0,-100.00,East,80,2.0,6.0,25,-99.99,,,-99.99,,2013-01-14 18:52:00,
2013-01-14 11:02:00,25.0,-8.0,-100.00,NE,49,3.0,6.0,23,-99.99,,,-99.99,,2013-01-14 19:02:00,
2013-01-14 11:12:00,25.0,-8.0,-100.00,NE,48,3.0,7.0,23,-99.99,,,-99.99,,2013-01-14 19:12:00,
2013-01-14 11:22:00,25.0,-10.0,-100.00,ENE,58,3.0,7.0,20,-99.99,,,-99.99,,2013-01-14 19:22:00,
2013-01-14 11:32:00,26.0,-9.0,-100.00,ENE,66,3.0,8.0,20,-99.99,,,-99.99,,2013-01-14 19:32:00,
2013-01-14 11:42:00,25.0,-8.0,-100.00,ENE,62,2.0,5.0,22,-99.99,,,-99.99,,2013-01-14 19:42:00,
2013-01-14 11:52:00,25.0,-8.0,-100.00,NNE,21,4.0,8.0,22,-99.99,,,-99.99,,2013-01-14 19:52:00,
2013-01-14 12:03:00,26.0,-6.0,-100.00,NE,56,3.0,8.0,24,-99.99,,,-99.99,,2013-01-14 20:03:00,
2013-01-14 12:12:00,26.0,-7.0,-100.00,NE,37,3.0,7.0,23,-99.99,,,-99.99,,2013-01-14 20:12:00,
2013-01-14 12:22:00,26.0,-9.0,-100.00,NNE,25,4.0,9.0,20,-99.99,,,-99.99,,2013-01-14 20:22:00,
2013-01-14 12:33:00,27.0,-8.0,-100.00,NE,49,3.0,9.0,21,-99.99,,,-99.99,,2013-01-14 20:33:00,
2013-01-14 12:42:00,26.0,-9.0,-100.00,NE,35,3.0,6.0,20,-99.99,,,-99.99,,2013-01-14 20:42:00,
2013-01-14 12:52:00,26.0,-8.0,-100.00,NE,45,3.0,6.0,22,-99.99,,,-99.99,,2013-01-14 20:52:00,
2013-01-14 13:02:00,27.0,-5.0,-100.00,NNE,22,2.0,5.0,24,-99.99,,,-99.99,,2013-01-14 21:02:00,
2013-01-14 13:12:00,26.0,-9.0,-100.00,NE,42,4.0,8.0,21,-99.99,,,-99.99,,2013-01-14 21:12:00,
2013-01-14 13:22:00,26.0,-8.0,-100.00,NE,45,3.0,8.0,22,-99.99,,,-99.99,,2013-01-14 21:22:00,
2013-01-14 13:32:00,25.0,-9.0,-100.00,NE,34,5.0,10.0,21,-99.99,,,-99.99,,2013-01-14 21:32:00,
2013-01-14 13:42:00,25.0,-9.0,-100.00,NE,34,4.0,8.0,21,-99.99,,,-99.99,,2013-01-14 21:42:00,
2013-01-14 13:53:00,25.0,-9.0,-100.00,NNE,31,4.0,9.0,21,-99.99,,,-99.99,,2013-01-14 21:53:00,
2013-01-14 14:02:00,25.0,-8.0,-100.00,NE,40,3.0,7.0,22,-99.99,,,-99.99,,2013-01-14 22:02:00,
2013-01-14 14:12:00,25.0,-7.0,-100.00,NNE,26,3.0,6.0,24,-99.99,,,-99.99,,2013-01-14 22:12:00,
2013-01-14 14:23:00,25.0,-7.0,-100.00,NNE,26,3.0,6.0,24,-99.99,,,-99.99,,2013-01-14 22:23:00,
2013-01-14 14:32:00,25.0,-6.0,-100.00,NE,54,2.0,6.0,25,-99.99,,,-99.99,,2013-01-14 22:32:00,
2013-01-14 14:42:00,25.0,-7.0,-100.00,NE,34,3.0,6.0,24,-99.99,,,-99.99,,2013-01-14 22:42:00,
2013-01-14 14:52:00,24.0,-7.0,-100.00,NNE,20,4.0,7.0,25,-99.99,,,-99.99,,2013-01-14 22:52:00,
2013-01-14 15:02:00,24.0,-7.0,-100.00,NNE,20,4.0,7.0,25,-99.99,,,-99.99,,2013-01-14 23:02:00,
2013-01-14 15:12:00,24.0,-6.0,-100.00,NE,37,3.0,6.0,26,-99.99,,,-99.99,,2013-01-14 23:12:00,
2013-01-14 15:22:00,24.0,-5.0,-100.00,NE,52,2.0,7.0,27,-99.99,,,-99.99,,2013-01-14 23:22:00,
2013-01-14 15:33:00,24.0,-5.0,-100.00,ENE,70,2.0,6.0,27,-99.99,,,-99.99,,2013-01-14 23:33:00,
2013-01-14 15:42:00,24.0,-6.0,-100.00,NNE,32,3.0,5.0,26,-99.99,,,-99.99,,2013-01-14 23:42:00,
2013-01-14 15:52:00,24.0,-5.0,-100.00,NE,34,2.0,4.0,27,-99.99,,,-99.99,,2013-01-14 23:52:00,
2013-01-14 16:02:00,24.0,-6.0,-100.00,NE,44,2.0,7.0,26,-99.99,,,-99.99,,2013-01-15 00:02:00,
2013-01-14 16:12:00,24.0,-6.0,-100.00,NE,42,2.0,4.0,26,-99.99,,,-99.99,,2013-01-15 00:12:00,
2013-01-14 16:22:00,24.0,-9.0,-100.00,North,8,3.0,6.0,22,-99.99,,,-99.99,,2013-01-15 00:22:00,
2013-01-14 16:32:00,24.0,-9.0,-100.00,NE,36,2.0,5.0,22,-99.99,,,-99.99,,2013-01-15 00:32:00,
2013-01-14 16:43:00,24.0,-8.0,-100.00,ENE,61,2.0,4.0,23,-99.99,,,-99.99,,2013-01-15 00:43:00,
2013-01-14 16:52:00,24.0,-8.0,-100.00,ENE,63,1.0,2.0,23,-99.99,,,-99.99,,2013-01-15 00:52:00,
2013-01-14 17:02:00,24.0,-8.0,-100.00,ENE,63,1.0,2.0,23,-99.99,,,-99.99,,2013-01-15 01:02:00,
2013-01-14 17:12:00,23.0,-8.0,-100.00,NNE,33,2.0,5.0,24,-99.99,,,-99.99,,2013-01-15 01:12:00,
2013-01-14 17:22:00,22.0,-8.0,-100.00,NE,38,2.0,3.0,26,-99.99,,,-99.99,,2013-01-15 01:22:00,
2013-01-14 17:32:00,22.0,-8.0,-100.00,NE,38,2.0,3.0,26,-99.99,,,-99.99,,2013-01-15 01:32:00,
2013-01-14 17:42:00,22.0,-8.0,-100.00,NE,38,2.0,3.0,26,-99.99,,,-99.99,,2013-01-15 01:42:00,
2013-01-14 17:52:00,21.0,-8.0,-100.00,NE,36,3.0,7.0,27,-99.99,,,-99.99,,2013-01-15 01:52:00,
2013-01-14 18:02:00,20.0,-9.0,-100.00,NE,46,3.0,7.0,26,-99.99,,,-99.99,,2013-01-15 02:02:00,
2013-01-14 18:12:00,20.0,-10.0,-100.00,NE,42,4.0,6.0,25,-99.99,,,-99.99,,2013-01-15 02:12:00,
2013-01-14 18:22:00,20.0,-10.0,-100.00,ENE,59,3.0,6.0,25,-99.99,,,-99.99,,2013-01-15 02:22:00,
2013-01-14 18:32:00,20.0,-10.0,-100.00,ENE,61,2.0,5.0,25,-99.99,,,-99.99,,2013-01-15 02:32:00,
2013-01-14 18:42:00,20.0,-10.0,-100.00,NE,49,3.0,5.0,25,-99.99,,,-99.99,,2013-01-15 02:42:00,
2013-01-14 18:52:00,20.0,-10.0,-100.00,NE,50,2.0,8.0,25,-99.99,,,-99.99,,2013-01-15 02:52:00,
2013-01-14 19:02:00,20.0,-10.0,-100.00,NE,50,2.0,8.0,25,-99.99,,,-99.99,,2013-01-15 03:02:00,
2013-01-14 19:12:00,20.0,-9.0,-100.00,NNE,33,4.0,11.0,26,-99.99,,,-99.99,,2013-01-15 03:12:00,
2013-01-14 19:22:00,20.0,-10.0,-100.00,NE,45,4.0,9.0,25,-99.99,,,-99.99,,2013-01-15 03:22:00,
2013-01-14 19:32:00,20.0,-9.0,-100.00,NE,39,3.0,8.0,26,-99.99,,,-99.99,,2013-01-15 03:32:00,
2013-01-14 19:42:00,20.0,-9.0,-100.00,NE,46,3.0,7.0,26,-99.99,,,-99.99,,2013-01-15 03:42:00,
2013-01-14 19:52:00,20.0,-9.0,-100.00,ENE,58,3.0,6.0,26,-99.99,,,-99.99,,2013-01-15 03:52:00,
2013-01-14 20:02:00,20.0,-9.0,-100.00,ENE,58,3.0,6.0,26,-99.99,,,-99.99,,2013-01-15 04:02:00,
2013-01-14 20:12:00,19.0,-10.0,-100.00,ENE,61,3.0,7.0,26,-99.99,,,-99.99,,2013-01-15 04:12:00,
2013-01-14 20:22:00,19.0,-9.0,-100.00,ENE,57,2.0,6.0,27,-99.99,,,-99.99,,2013-01-15 04:22:00,
2013-01-14 20:32:00,19.0,-9.0,-100.00,NNW,338,2.0,6.0,27,-99.99,,,-99.99,,2013-01-15 04:32:00,
2013-01-14 20:42:00,19.0,-9.0,-100.00,NNW,338,2.0,6.0,27,-99.99,,,-99.99,,2013-01-15 04:42:00,
2013-01-14 20:52:00,20.0,-9.0,-100.00,NE,38,3.0,8.0,26,-99.99,,,-99.99,,2013-01-15 04:52:00,
2013-01-14 21:03:00,20.0,-9.0,-100.00,NNE,23,3.0,7.0,26,-99.99,,,-99.99,,2013-01-15 05:03:00,
2013-01-14 21:12:00,19.0,-10.0,-100.00,NNE,30,3.0,9.0,26,-99.99,,,-99.99,,2013-01-15 05:12:00,
2013-01-14 21:22:00,19.0,-9.0,-100.00,NE,40,4.0,7.0,27,-99.99,,,-99.99,,2013-01-15 05:22:00,
2013-01-14 21:33:00,19.0,-9.0,-100.00,NE,34,3.0,9.0,27,-99.99,,,-99.99,,2013-01-15 05:33:00,
2013-01-14 21:42:00,19.0,-9.0,-100.00,NNE,31,3.0,7.0,27,-99.99,,,-99.99,,2013-01-15 05:42:00,
2013-01-14 21:52:00,19.0,-9.0,-100.00,NNE,22,3.0,9.0,27,-99.99,,,-99.99,,2013-01-15 05:52:00,
2013-01-14 22:02:00,20.0,-9.0,-100.00,NNE,32,4.0,9.0,27,-99.99,,,-99.99,,2013-01-15 06:02:00,
2013-01-14 22:12:00,20.0,-9.0,-100.00,NE,38,4.0,9.0,27,-99.99,,,-99.99,,2013-01-15 06:12:00,
2013-01-14 22:22:00,20.0,-9.0,-100.00,NNE,27,5.0,10.0,27,-99.99,,,-99.99,,2013-01-15 06:22:00,
2013-01-14 22:32:00,19.0,-9.0,-100.00,NE,40,3.0,10.0,28,-99.99,,,-99.99,,2013-01-15 06:32:00,
2013-01-14 22:42:00,19.0,-9.0,-100.00,NE,56,3.0,10.0,28,-99.99,,,-99.99,,2013-01-15 06:42:00,
2013-01-14 22:52:00,19.0,-8.0,-100.00,NE,55,3.0,9.0,29,-99.99,,,-99.99,,2013-01-15 06:52:00,
2013-01-14 23:02:00,19.0,-8.0,-100.00,ENE,65,3.0,11.0,29,-99.99,,,-99.99,,2013-01-15 07:02:00,
2013-01-14 23:12:00,19.0,-8.0,-100.00,NE,49,4.0,14.0,29,-99.99,,,-99.99,,2013-01-15 07:12:00,
2013-01-14 23:22:00,19.0,-9.0,-100.00,NE,43,5.0,10.0,28,-99.99,,,-99.99,,2013-01-15 07:22:00,
2013-01-14 23:32:00,19.0,-9.0,-100.00,NE,50,4.0,9.0,28,-99.99,,,-99.99,,2013-01-15 07:32:00,
2013-01-14 23:42:00,19.0,-8.0,-100.00,NE,44,4.0,9.0,29,-99.99,,,-99.99,,2013-01-15 07:42:00,
2013-01-14 23:52:00,19.0,-8.0,-100.00,NNE,33,4.0,9.0,29,-99.99,,,-99.99,,2013-01-15 07:52:00,